Time;durP1;ratioP1;P1;durP2;ratioP2;P2;SDS_P1;SDS_P2;PMS_P1;PMS_P2;Temp;Humidity;BMP_temperature;BMP_pressure;BME280_temperature;BME280_humidity;BME280_pressure;Samples;Min_cycle;Max_cycle;Signal;HPM_P1;HPM_P2
2022/07/06 00:02:03;;;;;;;17.30;9.90;;;;;;;19.85;100.00;93149.84;5011251;28;20100;-77
2022/07/06 00:04:30;;;;;;;17.10;10.23;;;;;;;19.60;100.00;93133.31;5011294;28;20053;-77
2022/07/06 00:06:58;;;;;;;16.08;10.38;;;;;;;19.71;100.00;93136.63;4997297;28;20054;-77
2022/07/06 00:09:25;;;;;;;22.15;10.35;;;;;;;19.83;100.00;93146.75;5011133;28;20480;-77
2022/07/06 00:11:51;;;;;;;13.65;10.02;;;;;;;19.79;100.00;93143.09;5011043;28;20053;-77
2022/07/06 00:14:18;;;;;;;15.13;9.48;;;;;;;19.82;100.00;93155.63;5011180;28;20100;-77
2022/07/06 00:16:46;;;;;;;19.58;10.75;;;;;;;19.89;100.00;93161.31;5010801;28;20108;-77
2022/07/06 00:19:12;;;;;;;14.35;10.25;;;;;;;19.97;100.00;93149.56;5011126;28;20084;-77
2022/07/06 00:21:39;;;;;;;15.15;9.05;;;;;;;20.03;100.00;93171.94;5010837;28;20125;-77
2022/07/06 00:24:08;;;;;;;16.80;10.25;;;;;;;20.03;100.00;93169.34;5010957;28;20120;-77
2022/07/06 00:26:34;;;;;;;12.88;9.55;;;;;;;20.09;100.00;93167.47;5011129;28;20046;-77
2022/07/06 00:29:01;;;;;;;16.10;9.45;;;;;;;20.04;100.00;93162.28;5010752;28;20053;-76
2022/07/06 00:31:28;;;;;;;15.00;9.48;;;;;;;20.01;100.00;93166.19;5010381;28;20461;-76
2022/07/06 00:33:55;;;;;;;16.45;10.60;;;;;;;20.07;100.00;93169.56;5010282;28;20461;-76
2022/07/06 00:36:22;;;;;;;14.60;10.15;;;;;;;19.82;100.00;93160.03;5010380;28;20558;-75
2022/07/06 00:38:48;;;;;;;19.20;11.23;;;;;;;19.49;100.00;93161.19;5010203;28;20564;-76
2022/07/06 00:41:17;;;;;;;16.15;10.48;;;;;;;19.27;100.00;93147.75;5010516;28;20100;-76
2022/07/06 00:43:51;;;;;;;18.55;12.10;;;;;;;19.26;100.00;93149.56;5009696;28;20056;-76
2022/07/06 00:46:18;;;;;;;20.55;11.80;;;;;;;19.18;100.00;93118.88;5009585;28;20058;-76
2022/07/06 00:48:45;;;;;;;17.52;11.93;;;;;;;19.31;100.00;93143.56;5010192;28;20387;-75
2022/07/06 00:51:13;;;;;;;17.88;12.55;;;;;;;19.00;100.00;93136.59;5009637;28;20057;-75
2022/07/06 00:53:40;;;;;;;16.70;11.85;;;;;;;19.18;100.00;93124.88;5009871;28;20061;-76
2022/07/06 00:56:07;;;;;;;19.90;11.63;;;;;;;19.33;100.00;93115.41;5009776;28;20034;-76
2022/07/06 00:58:36;;;;;;;17.35;12.25;;;;;;;19.34;100.00;93098.75;5010222;28;20050;-76
2022/07/06 01:01:03;;;;;;;19.65;13.15;;;;;;;19.36;100.00;93102.63;5009599;28;20073;-76
2022/07/06 01:03:29;;;;;;;24.05;12.52;;;;;;;19.44;100.00;93097.94;5010167;28;20103;-76
2022/07/06 01:05:56;;;;;;;20.90;12.82;;;;;;;19.44;100.00;93092.72;4998980;28;20054;-75
2022/07/06 01:08:24;;;;;;;20.67;12.30;;;;;;;19.54;100.00;93104.94;5007173;28;20096;-76
2022/07/06 01:10:51;;;;;;;20.92;12.75;;;;;;;19.51;100.00;93088.00;5009729;28;20434;-76
2022/07/06 01:13:18;;;;;;;23.63;13.65;;;;;;;19.58;100.00;93096.28;5009854;28;20050;-76
2022/07/06 01:15:46;;;;;;;18.60;12.70;;;;;;;19.66;100.00;93115.81;5009579;28;20046;-76
2022/07/06 01:18:13;;;;;;;19.02;11.80;;;;;;;19.51;100.00;93121.88;5009836;28;20144;-76
2022/07/06 01:20:41;;;;;;;18.45;12.05;;;;;;;19.29;100.00;93120.38;5009911;28;20042;-75
2022/07/06 01:23:08;;;;;;;14.63;10.40;;;;;;;18.91;100.00;93112.94;5009941;28;20069;-76
2022/07/06 01:25:35;;;;;;;15.27;10.48;;;;;;;18.91;100.00;93105.13;5009637;28;20108;-76
2022/07/06 01:28:02;;;;;;;14.68;10.35;;;;;;;18.73;100.00;93109.03;5005402;28;20510;-76
2022/07/06 01:30:29;;;;;;;16.10;10.98;;;;;;;18.61;100.00;93119.72;5007465;28;20441;-76
2022/07/06 01:32:56;;;;;;;14.35;11.05;;;;;;;17.83;100.00;93026.09;5007645;28;20077;-75
2022/07/06 01:35:25;;;;;;;17.40;12.40;;;;;;;18.64;100.00;93126.22;5008230;28;20049;-75
2022/07/06 01:37:53;;;;;;;24.25;15.18;;;;;;;18.74;100.00;93117.66;5004082;28;20597;-75
2022/07/06 01:40:20;;;;;;;16.85;11.63;;;;;;;18.76;100.00;93118.94;5004752;28;20046;-75
2022/07/06 01:42:47;;;;;;;13.30;11.00;;;;;;;18.82;100.00;93135.31;5007063;28;20042;-75
2022/07/06 01:45:13;;;;;;;16.30;11.52;;;;;;;18.75;100.00;93125.16;5003493;28;20050;-75
2022/07/06 01:47:40;;;;;;;14.43;10.88;;;;;;;18.50;100.00;93126.75;4989312;28;20043;-75
2022/07/06 01:50:09;;;;;;;20.63;13.95;;;;;;;18.19;100.00;93123.38;4989566;28;20050;-76
2022/07/06 01:52:36;;;;;;;22.30;13.73;;;;;;;17.94;100.00;93122.25;5006071;28;20129;-75
2022/07/06 01:55:05;;;;;;;21.13;13.98;;;;;;;17.89;100.00;93121.25;5008835;28;20042;-75
2022/07/06 01:57:32;;;;;;;21.70;15.80;;;;;;;17.88;100.00;93132.66;5008575;28;20052;-75
2022/07/06 01:59:58;;;;;;;22.40;15.27;;;;;;;18.02;100.00;93130.34;5008847;28;20054;-75
2022/07/06 02:02:25;;;;;;;24.15;16.80;;;;;;;17.96;100.00;93126.16;5008599;28;20088;-75
2022/07/06 02:04:52;;;;;;;24.05;16.38;;;;;;;18.12;100.00;93123.63;5008664;28;20490;-76
2022/07/06 02:07:19;;;;;;;24.52;15.32;;;;;;;18.32;100.00;93129.91;5008742;28;20498;-76
2022/07/06 02:09:45;;;;;;;24.92;15.27;;;;;;;18.43;100.00;93132.22;5008887;28;20129;-76
2022/07/06 02:12:14;;;;;;;22.33;16.70;;;;;;;18.58;100.00;93135.06;5008620;28;20542;-75
2022/07/06 02:14:40;;;;;;;18.90;13.95;;;;;;;18.66;100.00;93135.31;5008939;28;20100;-75
2022/07/06 02:17:07;;;;;;;22.17;14.65;;;;;;;18.79;100.00;93138.47;5008752;28;20038;-75
2022/07/06 02:19:34;;;;;;;21.58;14.60;;;;;;;18.86;100.00;93144.16;5008864;28;20042;-75
2022/07/06 02:22:01;;;;;;;18.67;13.60;;;;;;;18.91;100.00;93138.94;5006156;28;20046;-75
2022/07/06 02:24:27;;;;;;;21.73;14.68;;;;;;;18.99;100.00;93142.84;5008948;28;20041;-75
2022/07/06 02:26:54;;;;;;;19.08;13.73;;;;;;;19.06;100.00;93142.56;5008748;28;20429;-76
2022/07/06 02:29:22;;;;;;;20.55;13.38;;;;;;;19.07;100.00;93138.94;5008685;28;20044;-75
2022/07/06 02:31:49;;;;;;;20.30;13.55;;;;;;;19.11;100.00;93134.00;5008713;28;20065;-75
2022/07/06 02:34:16;;;;;;;23.15;12.57;;;;;;;19.15;100.00;93140.22;5008331;28;20494;-76
2022/07/06 02:36:42;;;;;;;20.58;12.82;;;;;;;19.17;100.00;93141.50;5008195;28;20054;-75
2022/07/06 02:39:09;;;;;;;22.10;12.80;;;;;;;19.21;100.00;93137.34;5008760;28;20159;-76
2022/07/06 02:41:36;;;;;;;21.90;13.70;;;;;;;19.07;100.00;93108.47;5008638;28;20093;-76
2022/07/06 02:44:03;;;;;;;25.30;13.70;;;;;;;19.26;100.00;93133.97;5008463;28;20092;-75
2022/07/06 02:46:31;;;;;;;26.77;14.65;;;;;;;19.31;100.00;93131.31;5008405;28;20038;-76
2022/07/06 02:48:58;;;;;;;24.65;15.88;;;;;;;19.31;100.00;93126.09;5008377;28;20490;-76
2022/07/06 02:51:25;;;;;;;21.42;13.90;;;;;;;19.31;100.00;93131.31;5008442;28;20132;-76
2022/07/06 02:53:51;;;;;;;23.33;14.88;;;;;;;19.16;100.00;93123.56;5008186;28;20050;-75
2022/07/06 02:56:18;;;;;;;25.05;16.23;;;;;;;19.15;100.00;93114.97;4989040;28;20093;-75
2022/07/06 02:58:45;;;;;;;23.48;14.52;;;;;;;19.11;100.00;93118.38;4988513;28;20463;-76
2022/07/06 03:01:11;;;;;;;23.42;14.70;;;;;;;19.05;100.00;93109.78;4988711;28;20097;-75
2022/07/06 03:03:40;;;;;;;27.38;15.68;;;;;;;19.04;100.00;93111.63;4988710;28;20042;-75
2022/07/06 03:06:07;;;;;;;26.70;16.55;;;;;;;18.94;100.00;93109.00;4998594;28;20053;-75
2022/07/06 03:08:34;;;;;;;28.50;16.88;;;;;;;18.91;100.00;93125.94;5009899;28;20092;-76
2022/07/06 03:11:01;;;;;;;22.42;14.38;;;;;;;18.77;100.00;93127.50;5011971;28;20050;-75
2022/07/06 03:13:28;;;;;;;23.50;15.05;;;;;;;18.70;100.00;93115.56;5011839;28;20050;-76
2022/07/06 03:15:55;;;;;;;22.13;14.18;;;;;;;18.51;100.00;93136.13;5011955;28;20053;-75
2022/07/06 03:18:22;;;;;;;19.05;13.35;;;;;;;18.33;100.00;93132.22;5012009;28;20120;-76
2022/07/06 03:20:50;;;;;;;20.67;14.05;;;;;;;18.15;100.00;93131.69;5011787;28;20434;-76
2022/07/06 03:23:17;;;;;;;22.17;13.88;;;;;;;18.26;100.00;93139.50;5011822;28;20505;-75
2022/07/06 03:25:44;;;;;;;21.40;13.15;;;;;;;18.35;100.00;93143.16;5011695;28;20046;-75
2022/07/06 03:28:11;;;;;;;19.95;13.18;;;;;;;18.41;100.00;93146.53;5011748;28;20046;-76
2022/07/06 03:30:37;;;;;;;20.38;13.32;;;;;;;18.52;100.00;93137.69;5012021;28;20041;-76
2022/07/06 03:33:04;;;;;;;23.70;13.60;;;;;;;18.61;100.00;93150.16;5011422;28;20050;-76
2022/07/06 03:35:31;;;;;;;19.58;12.27;;;;;;;18.62;100.00;93141.31;5011973;28;20054;-76
2022/07/06 03:37:59;;;;;;;19.15;11.40;;;;;;;18.74;100.00;93149.63;5011742;28;20100;-76
2022/07/06 03:40:26;;;;;;;18.52;12.77;;;;;;;18.75;100.00;93153.78;5011692;28;20041;-76
2022/07/06 03:42:53;;;;;;;21.92;13.25;;;;;;;18.82;100.00;93143.13;5011387;28;20096;-76
2022/07/06 03:45:19;;;;;;;22.90;14.18;;;;;;;18.91;100.00;93151.97;5011716;28;20046;-76
2022/07/06 03:47:46;;;;;;;28.35;15.60;;;;;;;18.95;100.00;93158.22;5011471;28;20045;-76
2022/07/06 03:50:13;;;;;;;26.90;16.15;;;;;;;18.96;100.00;93157.16;5010507;28;20120;-76
2022/07/06 03:52:40;;;;;;;24.73;15.43;;;;;;;18.98;100.00;93169.13;5010019;28;20058;-75
2022/07/06 03:55:10;;;;;;;29.90;16.70;;;;;;;18.96;100.00;93154.56;5011402;28;20129;-76
2022/07/06 03:57:37;;;;;;;31.88;17.70;;;;;;;19.01;100.00;93160.78;4998233;28;20065;-76
2022/07/06 04:00:05;;;;;;;34.17;18.02;;;;;;;19.06;100.00;93160.81;5008170;28;20042;-76
2022/07/06 04:02:32;;;;;;;33.85;18.50;;;;;;;19.08;100.00;93156.13;5009300;28;20568;-76
2022/07/06 04:04:59;;;;;;;31.20;18.38;;;;;;;19.15;100.00;93161.03;5007003;28;20042;-76
2022/07/06 04:07:26;;;;;;;32.10;18.92;;;;;;;19.13;100.00;93147.50;5000634;28;20046;-76
2022/07/06 04:09:53;;;;;;;31.58;17.60;;;;;;;19.19;100.00;93144.66;5011128;28;20050;-76
2022/07/06 04:12:21;;;;;;;28.33;17.25;;;;;;;19.23;100.00;93150.09;5011143;28;20053;-76
2022/07/06 04:14:48;;;;;;;30.40;16.85;;;;;;;19.30;100.00;93150.59;5010671;28;20100;-75
2022/07/06 04:19:59;;;;;;;23.77;16.30;;;;;;;19.25;100.00;93150.59;5010425;28;20052;-74
2022/07/06 04:22:26;;;;;;;28.77;16.33;;;;;;;19.23;100.00;93153.50;5010717;28;20551;-74
2022/07/06 04:24:53;;;;;;;27.63;15.77;;;;;;;19.14;100.00;93138.66;5010961;28;20468;-74
2022/07/06 04:27:21;;;;;;;23.17;15.52;;;;;;;19.13;100.00;93156.13;5010397;28;20053;-75
2022/07/06 04:29:47;;;;;;;23.27;15.00;;;;;;;19.08;100.00;93161.34;5010684;28;20796;-75
2022/07/06 04:32:14;;;;;;;24.33;14.27;;;;;;;18.98;100.00;93161.31;5010493;28;20096;-75
2022/07/06 04:34:41;;;;;;;19.90;11.13;;;;;;;18.95;100.00;93165.22;5010444;28;20054;-75
2022/07/06 04:37:08;;;;;;;14.80;9.70;;;;;;;18.97;100.00;93181.34;5010618;28;20050;-75
2022/07/06 04:39:34;;;;;;;14.50;9.93;;;;;;;18.73;100.00;93171.50;5010736;28;20119;-75
2022/07/06 04:42:01;;;;;;;14.95;9.60;;;;;;;18.74;100.00;93167.84;5010344;28;20545;-75
2022/07/06 04:44:29;;;;;;;12.50;8.05;;;;;;;18.53;100.00;93185.28;5010417;28;20046;-76
2022/07/06 04:46:56;;;;;;;11.85;7.15;;;;;;;18.50;100.00;93170.19;5010384;28;20049;-75
2022/07/06 04:49:23;;;;;;;9.75;6.60;;;;;;;18.21;100.00;93192.28;5010360;28;20057;-76
2022/07/06 04:51:49;;;;;;;9.35;6.75;;;;;;;18.03;100.00;93185.69;5010216;28;20057;-76
2022/07/06 04:54:16;;;;;;;10.70;8.50;;;;;;;17.82;100.00;93195.28;5010067;28;20046;-76
2022/07/06 04:56:43;;;;;;;9.95;7.10;;;;;;;17.81;100.00;93188.50;5010352;28;20050;-76
2022/07/06 04:59:09;;;;;;;11.13;7.15;;;;;;;17.93;100.00;93198.66;5010284;28;20049;-76
2022/07/06 05:01:38;;;;;;;11.55;6.70;;;;;;;18.03;100.00;93206.50;5010018;28;20469;-74
2022/07/06 05:04:05;;;;;;;10.35;6.72;;;;;;;18.12;100.00;93202.41;5010074;28;20120;-75
2022/07/06 05:06:31;;;;;;;9.40;6.43;;;;;;;18.27;100.00;93209.44;4996519;28;20046;-76
2022/07/06 05:08:59;;;;;;;10.73;5.30;;;;;;;18.10;100.00;93185.50;5010514;28;20458;-75
2022/07/06 05:11:26;;;;;;;7.65;5.07;;;;;;;18.01;100.00;93209.34;5009993;28;20133;-75
2022/07/06 05:13:53;;;;;;;7.75;4.97;;;;;;;17.97;100.00;93216.09;5009751;28;20050;-74
2022/07/06 05:16:20;;;;;;;8.27;5.70;;;;;;;17.72;100.00;93216.78;5010206;28;20057;-75
2022/07/06 05:18:48;;;;;;;7.72;6.15;;;;;;;17.46;100.00;93216.69;5009778;28;20437;-76
2022/07/06 05:21:15;;;;;;;10.15;6.80;;;;;;;17.62;100.00;93230.50;5009679;28;20084;-76
2022/07/06 05:23:41;;;;;;;10.68;6.93;;;;;;;17.31;100.00;93227.78;5010101;28;20144;-76
2022/07/06 05:26:08;;;;;;;11.48;7.03;;;;;;;17.16;100.00;93233.63;5010072;28;20038;-78
2022/07/06 05:28:35;;;;;;;8.82;6.50;;;;;;;16.99;100.00;93239.72;5010014;28;20050;-76
2022/07/06 05:31:02;;;;;;;13.75;7.45;;;;;;;17.31;100.00;93231.13;5005216;28;20467;-76
2022/07/06 05:33:29;;;;;;;10.60;7.68;;;;;;;17.33;100.00;93246.47;4996179;28;20054;-76
2022/07/06 05:35:57;;;;;;;10.82;7.05;;;;;;;17.73;100.00;93250.31;5008056;28;20100;-75
2022/07/06 05:38:24;;;;;;;11.77;8.55;;;;;;;17.67;100.00;93255.75;5009568;28;20051;-75
2022/07/06 05:40:51;;;;;;;12.50;7.78;;;;;;;17.77;100.00;93253.97;5009580;28;20457;-75
2022/07/06 05:43:18;;;;;;;10.65;7.80;;;;;;;17.79;100.00;93227.72;5009357;28;20100;-75
2022/07/06 05:45:45;;;;;;;10.75;7.53;;;;;;;18.03;100.00;93255.88;5009575;28;20134;-76
2022/07/06 05:50:57;;;;;;;12.73;6.93;;;;;;;17.98;100.00;93254.06;5009167;28;20060;-75
2022/07/06 05:53:24;;;;;;;9.50;7.00;;;;;;;18.32;100.00;93257.31;5008825;28;20046;-75
2022/07/06 05:55:50;;;;;;;11.07;6.38;;;;;;;18.27;100.00;93258.06;5009844;28;20108;-76
2022/07/06 05:58:17;;;;;;;9.73;6.68;;;;;;;18.39;100.00;93263.03;5009266;28;20050;-75
2022/07/06 06:00:44;;;;;;;15.98;7.50;;;;;;;18.58;100.00;93258.13;5009441;28;20379;-75
2022/07/06 06:03:11;;;;;;;13.63;7.57;;;;;;;18.41;100.00;93253.16;5009254;28;20049;-75
2022/07/06 06:05:38;;;;;;;10.43;7.20;;;;;;;18.40;100.00;93252.38;5000666;28;20046;-75
2022/07/06 06:22:45;;;;;;;13.00;8.48;;;;;;;20.47;100.00;93254.88;5126596;27;20375;-75
2022/07/06 06:25:11;;;;;;;10.55;6.60;;;;;;;20.64;100.00;93265.72;5126910;27;20071;-76
2022/07/06 06:27:38;;;;;;;11.40;7.63;;;;;;;20.83;100.00;93270.31;5126964;27;20075;-75
2022/07/06 06:30:06;;;;;;;9.95;7.40;;;;;;;20.68;100.00;93258.13;5126378;27;20503;-75
2022/07/06 06:32:33;;;;;;;11.35;7.72;;;;;;;20.79;100.00;93269.31;5126800;27;20039;-75
2022/07/06 06:34:59;;;;;;;13.27;7.57;;;;;;;20.48;100.00;93265.06;5126843;27;20097;-76
2022/07/06 06:37:26;;;;;;;15.02;8.55;;;;;;;20.28;100.00;93252.91;5126978;27;20051;-76
2022/07/06 06:39:54;;;;;;;10.73;7.63;;;;;;;20.05;100.00;93252.50;5126717;27;20059;-76
2022/07/06 06:42:21;;;;;;;10.35;7.85;;;;;;;20.04;100.00;93243.09;5126513;27;20529;-76
2022/07/06 06:44:48;;;;;;;15.68;9.23;;;;;;;20.25;100.00;93240.41;5121128;27;20044;-76
2022/07/06 06:47:15;;;;;;;13.65;8.48;;;;;;;20.54;100.00;93235.28;5122606;28;20051;-75
2022/07/06 06:49:41;;;;;;;16.75;8.52;;;;;;;20.73;100.00;93247.66;5126889;27;20097;-76
2022/07/06 06:52:08;;;;;;;10.98;7.95;;;;;;;20.74;100.00;93236.16;5126379;27;20054;-76
2022/07/06 06:54:35;;;;;;;11.82;8.13;;;;;;;20.68;100.00;93237.25;5127122;27;20043;-76
2022/07/06 06:57:04;;;;;;;11.95;8.73;;;;;;;20.92;100.00;93239.22;5126681;27;20051;-76
2022/07/06 06:59:30;;;;;;;12.40;8.35;;;;;;;20.96;100.00;93240.22;5126440;27;20043;-76
2022/07/06 07:01:57;;;;;;;11.68;8.65;;;;;;;20.68;100.00;93247.69;5126666;27;20054;-76
2022/07/06 07:04:24;;;;;;;13.27;9.45;;;;;;;20.60;100.00;93238.63;5126284;27;20046;-76
2022/07/06 07:06:51;;;;;;;14.35;9.18;;;;;;;20.81;100.00;93241.09;5126401;27;20039;-76
2022/07/06 07:09:17;;;;;;;13.85;9.52;;;;;;;20.42;100.00;93243.44;5126203;27;20048;-76
2022/07/06 07:11:44;;;;;;;12.75;9.75;;;;;;;20.36;100.00;93241.13;5109533;27;20040;-76
2022/07/06 07:14:12;;;;;;;13.43;10.07;;;;;;;20.30;100.00;93235.16;5095491;28;20056;-76
2022/07/06 07:16:39;;;;;;;13.48;9.00;;;;;;;20.35;100.00;93231.72;5095477;28;20496;-77
2022/07/06 07:19:06;;;;;;;13.77;9.60;;;;;;;20.47;100.00;93226.19;5102747;28;20047;-77
2022/07/06 07:21:32;;;;;;;16.40;10.48;;;;;;;20.53;100.00;93218.06;5098935;28;20056;-76
2022/07/06 07:23:59;;;;;;;14.18;10.38;;;;;;;20.99;100.00;93218.00;5091480;28;20448;-77
2022/07/06 07:26:26;;;;;;;12.35;8.70;;;;;;;20.73;100.00;93213.72;5091276;28;20044;-77
2022/07/06 07:28:53;;;;;;;13.50;7.75;;;;;;;20.69;100.00;93221.34;5090999;28;20044;-78
2022/07/06 07:31:21;;;;;;;10.93;7.60;;;;;;;20.91;100.00;93229.81;5088557;28;20093;-77
2022/07/06 07:33:48;;;;;;;11.65;8.77;;;;;;;20.89;100.00;93230.09;5090375;28;20039;-77
2022/07/06 07:36:14;;;;;;;11.60;8.52;;;;;;;20.46;100.00;93235.84;5091153;28;20525;-78
2022/07/06 07:38:41;;;;;;;11.80;8.07;;;;;;;20.03;100.00;93234.50;5081339;28;20102;-78
2022/07/06 07:41:11;;;;;;;10.30;8.00;;;;;;;19.84;100.00;93217.88;5071118;28;20044;-79
2022/07/06 07:43:38;;;;;;;11.82;8.75;;;;;;;19.44;100.00;93225.56;5070648;28;20131;-79
2022/07/06 07:46:04;;;;;;;12.65;8.35;;;;;;;19.50;100.00;93227.88;5083276;28;20044;-78
2022/07/06 07:48:32;;;;;;;15.90;9.40;;;;;;;19.63;100.00;93228.41;5091146;28;20040;-77
2022/07/06 07:50:59;;;;;;;11.57;9.00;;;;;;;19.75;100.00;93230.69;5091487;28;20097;-77
2022/07/06 07:53:26;;;;;;;11.35;9.05;;;;;;;19.83;100.00;93226.75;5091384;28;20048;-78
2022/07/06 07:55:53;;;;;;;13.63;9.95;;;;;;;19.70;100.00;93208.03;5085677;28;20048;-78
2022/07/06 07:58:20;;;;;;;15.10;9.85;;;;;;;19.67;100.00;93239.81;5091307;28;20040;-78
2022/07/06 08:00:47;;;;;;;14.02;10.23;;;;;;;19.71;100.00;93235.66;5073927;28;20072;-78
2022/07/06 08:03:13;;;;;;;14.45;10.55;;;;;;;19.61;100.00;93236.47;5079489;28;20165;-78
2022/07/06 08:05:42;;;;;;;15.93;11.13;;;;;;;19.74;100.00;93227.31;5091352;28;20044;-77
2022/07/06 08:08:08;;;;;;;16.77;11.27;;;;;;;20.11;100.00;93238.41;5091424;28;20044;-78
2022/07/06 08:10:35;;;;;;;14.50;10.85;;;;;;;20.01;100.00;93241.03;5091112;28;20052;-81
2022/07/06 08:13:02;;;;;;;12.95;10.15;;;;;;;20.05;100.00;93243.88;5090769;28;20044;-78
2022/07/06 08:15:29;;;;;;;12.27;9.55;;;;;;;20.02;100.00;93232.16;5091316;28;20052;-77
2022/07/06 08:17:55;;;;;;;13.07;10.15;;;;;;;20.01;100.00;93241.03;5090701;28;20077;-78
2022/07/06 08:20:22;;;;;;;15.68;11.02;;;;;;;19.77;100.00;93247.63;5090835;28;20089;-79
2022/07/06 08:22:50;;;;;;;14.02;10.10;;;;;;;19.50;100.00;93240.91;5091051;28;20441;-78
2022/07/06 08:25:18;;;;;;;14.95;11.10;;;;;;;19.48;100.00;93243.00;5076949;28;20105;-77
2022/07/06 08:27:45;;;;;;;13.70;10.00;;;;;;;19.63;100.00;93244.03;5091075;28;20074;-78
2022/07/06 08:30:12;;;;;;;15.23;10.70;;;;;;;19.58;100.00;93241.44;5090512;28;20044;-78
2022/07/06 08:32:40;;;;;;;14.85;10.65;;;;;;;19.52;100.00;93232.84;5091129;28;20063;-78
2022/07/06 08:48:19;;;;;;;11.87;9.00;;;;;;;20.43;100.00;93247.59;5081151;27;1374257;-78
2022/07/06 08:50:46;;;;;;;13.10;9.60;;;;;;;20.61;100.00;93252.44;5123047;28;20085;-77
2022/07/06 08:53:13;;;;;;;13.95;9.30;;;;;;;20.96;100.00;93245.44;5127061;28;20043;-77
2022/07/06 08:55:40;;;;;;;12.18;9.32;;;;;;;21.20;100.00;93249.97;5127359;28;20458;-79
2022/07/06 08:58:08;;;;;;;14.73;9.25;;;;;;;21.42;100.00;93256.56;5110191;28;20058;-77
2022/07/06 09:00:35;;;;;;;14.32;9.45;;;;;;;21.49;100.00;93255.16;5116003;28;20054;-78
2022/07/06 09:03:02;;;;;;;13.32;8.93;;;;;;;21.23;100.00;93260.63;5106072;28;20043;-78
2022/07/06 09:05:33;;;;;;;12.57;9.18;;;;;;;21.02;100.00;93243.56;5110044;28;20047;-78
2022/07/06 09:08:01;;;;;;;11.55;9.00;;;;;;;21.03;100.00;93252.97;5124460;28;20043;-77
2022/07/06 09:10:28;;;;;;;10.50;8.88;;;;;;;20.91;100.00;93264.53;5119397;28;20044;-78
2022/07/06 09:13:03;;;;;;;11.70;8.75;;;;;;;20.60;100.00;93154.34;5121207;28;20056;-78
2022/07/06 09:15:30;;;;;;;11.95;8.95;;;;;;;21.24;100.00;93266.63;5118310;28;20047;-79
2022/07/06 09:17:57;;;;;;;14.88;9.32;;;;;;;20.80;100.00;93216.84;5110297;28;20047;-79
2022/07/06 09:20:25;;;;;;;11.30;8.68;;;;;;;21.38;100.00;93266.75;5113484;28;20132;-79
2022/07/06 09:22:59;;;;;;;11.70;8.63;;;;;;;21.23;100.00;93265.84;5113466;28;20052;-78
2022/07/06 09:25:26;;;;;;;11.52;8.98;;;;;;;21.15;100.00;93263.06;5111298;28;20588;-79
2022/07/06 09:27:55;;;;;;;11.00;8.38;;;;;;;20.79;100.00;93232.75;5109813;28;20551;-79
2022/07/06 09:30:23;;;;;;;13.65;9.68;;;;;;;21.07;100.00;93244.28;5114963;28;20079;-79
2022/07/06 09:32:52;;;;;;;15.98;12.48;;;;;;;21.34;100.00;93257.94;5107218;28;20048;-78
2022/07/06 09:35:23;;;;;;;19.50;14.20;;;;;;;21.32;100.00;93258.19;5117614;28;20043;-79
2022/07/06 09:38:00;;;;;;;16.80;13.10;;;;;;;21.41;100.00;93260.19;5118768;28;20048;-79
2022/07/06 09:40:27;;;;;;;19.27;12.77;;;;;;;21.58;100.00;93254.56;5118328;28;20094;-78
2022/07/06 09:43:08;;;;;;;18.42;12.35;;;;;;;21.57;100.00;93250.38;5117316;28;20096;-78
2022/07/06 09:45:36;;;;;;;17.90;13.50;;;;;;;21.65;100.00;93265.44;5125893;28;20040;-79
2022/07/06 09:48:07;;;;;;;18.52;12.48;;;;;;;21.79;100.00;93246.53;5109934;28;20056;-81
2022/07/06 09:50:39;;;;;;;18.52;13.48;;;;;;;21.68;100.00;93251.03;5091971;28;20105;-80
2022/07/06 09:53:08;;;;;;;17.85;12.75;;;;;;;21.88;100.00;93239.59;5092152;28;20048;-78
2022/07/06 09:55:35;;;;;;;19.85;14.68;;;;;;;22.45;100.00;93251.19;5103425;28;20116;-78
2022/07/06 09:58:02;;;;;;;19.35;12.50;;;;;;;22.87;100.00;93260.03;5097595;28;20096;-78
2022/07/06 10:00:29;;;;;;;19.85;13.27;;;;;;;23.04;100.00;93258.72;5102623;28;20048;-78
2022/07/06 10:02:55;;;;;;;16.95;11.43;;;;;;;23.21;99.48;93256.38;5102196;28;20036;-80
2022/07/06 10:05:26;;;;;;;16.05;12.23;;;;;;;23.21;100.00;93261.63;5103958;28;20048;-78
2022/07/06 10:07:57;;;;;;;15.65;10.32;;;;;;;22.86;99.91;93263.72;5103894;28;20480;-79
2022/07/06 10:10:27;;;;;;;14.73;12.07;;;;;;;22.94;100.00;93234.28;5094655;28;20067;-79
2022/07/06 10:12:56;;;;;;;15.95;11.25;;;;;;;23.17;99.92;93239.66;5091226;28;20062;-79
2022/07/06 10:15:24;;;;;;;15.98;11.52;;;;;;;23.60;97.96;93249.16;5090506;28;20055;-77
2022/07/06 10:17:51;;;;;;;17.80;12.30;;;;;;;23.96;96.72;93242.47;5099746;28;20043;-78
2022/07/06 10:20:18;;;;;;;12.02;10.07;;;;;;;24.35;93.69;93247.50;5098297;28;20040;-79
2022/07/06 10:22:46;;;;;;;15.43;10.75;;;;;;;24.41;93.54;93244.47;5100650;28;20043;-78
2022/07/06 10:25:13;;;;;;;14.10;10.98;;;;;;;23.95;90.70;93243.53;5096505;28;20497;-78
2022/07/06 10:27:43;;;;;;;15.38;11.00;;;;;;;24.02;93.73;93228.19;5091660;28;20105;-78
2022/07/06 10:30:11;;;;;;;15.18;9.98;;;;;;;23.53;95.29;93213.91;5091491;28;20466;-79
2022/07/06 10:32:41;;;;;;;12.15;9.70;;;;;;;23.80;92.20;93247.25;5097195;28;20050;-79
2022/07/06 10:35:08;;;;;;;15.25;11.38;;;;;;;24.10;93.75;93231.19;5102433;28;20044;-79
2022/07/06 10:37:35;;;;;;;15.07;11.32;;;;;;;24.40;91.55;93226.38;5097782;28;20055;-80
2022/07/06 10:42:51;;;;;;;15.27;9.85;;;;;;;24.23;94.12;93227.78;5109755;28;20554;-77
2022/07/06 10:45:41;;;;;;;14.80;9.40;;;;;;;24.71;93.35;93235.44;5109656;28;20047;-78
2022/07/06 10:48:34;;;;;;;12.85;10.23;;;;;;;25.04;89.73;93214.19;5107367;28;20483;-77
2022/07/06 10:51:04;;;;;;;10.98;8.27;;;;;;;25.24;87.45;93230.53;5102979;28;20044;-79
2022/07/06 10:53:33;;;;;;;11.73;8.38;;;;;;;25.25;85.31;93227.59;5109319;28;20044;-79
2022/07/06 10:56:03;;;;;;;11.02;8.60;;;;;;;25.71;82.07;93241.44;5104948;28;20138;-78
2022/07/06 10:58:52;;;;;;;11.85;8.27;;;;;;;25.77;82.86;93218.38;5102012;28;20097;-78
2022/07/06 11:01:20;;;;;;;11.43;8.35;;;;;;;26.24;80.08;93231.06;5099265;28;20135;-79
2022/07/06 11:03:49;;;;;;;12.45;8.38;;;;;;;24.30;84.56;93235.25;5097790;28;20096;-78
2022/07/06 11:06:18;;;;;;;13.32;9.63;;;;;;;23.67;88.97;93235.69;5095548;28;20043;-78
2022/07/06 11:08:46;;;;;;;15.45;11.52;;;;;;;23.62;90.98;93233.91;5095026;28;20078;-78
2022/07/06 11:11:16;;;;;;;14.90;12.05;;;;;;;23.81;91.31;93229.66;5105679;28;20043;-77
2022/07/06 11:13:49;;;;;;;18.77;12.68;;;;;;;24.17;91.71;93230.81;5102289;28;20130;-78
2022/07/06 11:16:17;;;;;;;22.55;14.30;;;;;;;24.61;90.45;93220.66;5099032;28;20043;-78
2022/07/06 11:18:49;;;;;;;20.75;14.52;;;;;;;25.03;90.70;93218.66;5099716;28;20075;-77
2022/07/06 11:21:22;;;;;;;16.25;12.02;;;;;;;25.16;84.86;93232.03;5098719;28;20101;-79
2022/07/06 11:23:50;;;;;;;16.90;12.63;;;;;;;25.44;83.24;93229.22;5095302;28;20048;-78
2022/07/06 11:26:19;;;;;;;17.35;12.13;;;;;;;25.46;83.05;93229.72;5097405;28;20047;-78
2022/07/06 11:28:51;;;;;;;14.02;11.13;;;;;;;25.44;82.42;93232.63;5097030;28;20060;-78
2022/07/06 11:31:18;;;;;;;15.90;11.70;;;;;;;25.05;81.08;93228.88;5099871;28;20048;-79
2022/07/06 11:33:49;;;;;;;14.07;11.60;;;;;;;24.27;82.76;93212.22;5099537;28;20063;-79
2022/07/06 11:36:17;;;;;;;16.02;11.70;;;;;;;24.50;86.30;93228.00;5099451;28;20091;-78
2022/07/06 11:38:45;;;;;;;14.07;11.40;;;;;;;24.62;82.98;93223.00;5099323;28;20558;-77
2022/07/06 11:41:13;;;;;;;15.60;11.65;;;;;;;24.57;81.73;93217.09;5099533;28;20048;-81
2022/07/06 11:43:43;;;;;;;13.80;11.05;;;;;;;24.49;82.24;93211.47;5099733;28;20051;-77
2022/07/06 11:46:21;;;;;;;16.63;12.18;;;;;;;24.48;83.81;93204.66;5092996;28;20074;-79
2022/07/06 11:48:48;;;;;;;14.93;11.70;;;;;;;24.34;83.73;93204.72;5092970;28;20609;-78
2022/07/06 11:51:15;;;;;;;17.85;11.85;;;;;;;24.22;83.83;93207.09;5098782;28;20043;-78
2022/07/06 11:53:45;;;;;;;18.13;12.50;;;;;;;23.92;87.43;93194.28;5096388;28;20044;-78